sensor_id;sensor_type;location;lat;lon;timestamp;P1;durP1;ratioP1;P2;durP2;ratioP2
43809;SDS011;29440;48.208;11.162;2023-08-06T00:02:22;5.30;;;2.42;;
43809;SDS011;29440;48.208;11.162;2023-08-06T00:04:48;3.53;;;2.60;;
43809;SDS011;29440;48.208;11.162;2023-08-06T00:07:13;3.40;;;2.58;;
43809;SDS011;29440;48.208;11.162;2023-08-06T00:09:39;3.83;;;2.25;;
43809;SDS011;29440;48.208;11.162;2023-08-06T00:12:04;3.38;;;2.20;;
43809;SDS011;29440;48.208;11.162;2023-08-06T00:14:30;6.13;;;2.67;;
43809;SDS011;29440;48.208;11.162;2023-08-06T00:16:56;4.18;;;2.70;;
43809;SDS011;29440;48.208;11.162;2023-08-06T00:19:21;4.68;;;2.33;;
43809;SDS011;29440;48.208;11.162;2023-08-06T00:21:47;3.47;;;2.17;;
43809;SDS011;29440;48.208;11.162;2023-08-06T00:24:12;4.10;;;2.45;;
43809;SDS011;29440;48.208;11.162;2023-08-06T00:26:38;4.20;;;2.67;;
43809;SDS011;29440;48.208;11.162;2023-08-06T00:29:04;3.78;;;3.08;;
43809;SDS011;29440;48.208;11.162;2023-08-06T00:31:29;6.90;;;3.15;;
43809;SDS011;29440;48.208;11.162;2023-08-06T00:33:55;5.07;;;3.10;;
43809;SDS011;29440;48.208;11.162;2023-08-06T00:36:20;3.92;;;2.60;;
43809;SDS011;29440;48.208;11.162;2023-08-06T00:38:46;5.43;;;3.80;;
43809;SDS011;29440;48.208;11.162;2023-08-06T00:41:12;5.25;;;3.47;;
43809;SDS011;29440;48.208;11.162;2023-08-06T00:43:37;5.32;;;3.63;;
43809;SDS011;29440;48.208;11.162;2023-08-06T00:46:03;4.38;;;3.30;;
43809;SDS011;29440;48.208;11.162;2023-08-06T00:48:28;5.03;;;3.28;;
43809;SDS011;29440;48.208;11.162;2023-08-06T00:50:54;8.77;;;3.85;;
43809;SDS011;29440;48.208;11.162;2023-08-06T00:53:20;6.00;;;3.40;;
43809;SDS011;29440;48.208;11.162;2023-08-06T00:55:46;5.00;;;3.55;;
43809;SDS011;29440;48.208;11.162;2023-08-06T00:58:12;5.78;;;3.58;;
43809;SDS011;29440;48.208;11.162;2023-08-06T01:00:39;6.30;;;4.00;;
43809;SDS011;29440;48.208;11.162;2023-08-06T01:03:05;5.50;;;4.32;;
43809;SDS011;29440;48.208;11.162;2023-08-06T01:05:30;11.50;;;4.07;;
43809;SDS011;29440;48.208;11.162;2023-08-06T01:14:11;7.20;;;3.42;;
43809;SDS011;29440;48.208;11.162;2023-08-06T01:16:19;6.50;;;3.80;;
43809;SDS011;29440;48.208;11.162;2023-08-06T01:18:46;5.60;;;3.90;;
43809;SDS011;29440;48.208;11.162;2023-08-06T01:21:17;5.88;;;3.80;;
43809;SDS011;29440;48.208;11.162;2023-08-06T01:23:43;5.15;;;3.47;;
43809;SDS011;29440;48.208;11.162;2023-08-06T01:31:30;4.63;;;3.80;;
43809;SDS011;29440;48.208;11.162;2023-08-06T01:33:59;9.70;;;3.70;;
43809;SDS011;29440;48.208;11.162;2023-08-06T01:36:28;7.47;;;3.30;;
43809;SDS011;29440;48.208;11.162;2023-08-06T01:38:55;5.70;;;3.55;;
43809;SDS011;29440;48.208;11.162;2023-08-06T01:41:20;4.55;;;2.95;;
43809;SDS011;29440;48.208;11.162;2023-08-06T01:43:46;4.97;;;3.08;;
43809;SDS011;29440;48.208;11.162;2023-08-06T01:46:11;3.80;;;2.55;;
43809;SDS011;29440;48.208;11.162;2023-08-06T01:48:37;3.58;;;2.60;;
43809;SDS011;29440;48.208;11.162;2023-08-06T01:51:06;2.97;;;2.33;;
43809;SDS011;29440;48.208;11.162;2023-08-06T01:53:32;4.07;;;1.67;;
43809;SDS011;29440;48.208;11.162;2023-08-06T01:55:58;4.05;;;2.53;;
43809;SDS011;29440;48.208;11.162;2023-08-06T01:58:23;4.18;;;2.05;;
43809;SDS011;29440;48.208;11.162;2023-08-06T02:00:49;3.25;;;2.55;;
43809;SDS011;29440;48.208;11.162;2023-08-06T02:03:15;2.50;;;1.70;;
43809;SDS011;29440;48.208;11.162;2023-08-06T02:05:40;2.47;;;2.10;;
43809;SDS011;29440;48.208;11.162;2023-08-06T02:08:06;4.25;;;2.15;;
43809;SDS011;29440;48.208;11.162;2023-08-06T02:10:31;2.67;;;2.03;;
43809;SDS011;29440;48.208;11.162;2023-08-06T02:12:57;2.25;;;1.90;;
43809;SDS011;29440;48.208;11.162;2023-08-06T02:15:23;3.33;;;1.83;;
43809;SDS011;29440;48.208;11.162;2023-08-06T02:17:48;4.45;;;2.00;;
43809;SDS011;29440;48.208;11.162;2023-08-06T02:20:14;2.80;;;1.98;;
43809;SDS011;29440;48.208;11.162;2023-08-06T02:22:39;2.45;;;1.73;;
43809;SDS011;29440;48.208;11.162;2023-08-06T02:25:05;3.97;;;2.28;;
43809;SDS011;29440;48.208;11.162;2023-08-06T02:27:31;4.82;;;2.33;;
43809;SDS011;29440;48.208;11.162;2023-08-06T02:29:56;5.25;;;1.90;;
43809;SDS011;29440;48.208;11.162;2023-08-06T02:32:22;2.35;;;1.77;;
43809;SDS011;29440;48.208;11.162;2023-08-06T02:34:47;2.13;;;1.75;;
43809;SDS011;29440;48.208;11.162;2023-08-06T02:37:13;4.38;;;1.95;;
43809;SDS011;29440;48.208;11.162;2023-08-06T02:39:38;3.20;;;1.80;;
43809;SDS011;29440;48.208;11.162;2023-08-06T02:42:06;3.60;;;2.45;;
43809;SDS011;29440;48.208;11.162;2023-08-06T02:44:32;2.20;;;1.88;;
43809;SDS011;29440;48.208;11.162;2023-08-06T02:46:58;2.30;;;1.65;;
43809;SDS011;29440;48.208;11.162;2023-08-06T02:49:24;5.53;;;1.98;;
43809;SDS011;29440;48.208;11.162;2023-08-06T02:51:50;2.60;;;2.03;;
43809;SDS011;29440;48.208;11.162;2023-08-06T02:54:16;2.67;;;2.15;;
43809;SDS011;29440;48.208;11.162;2023-08-06T02:56:43;5.93;;;2.47;;
43809;SDS011;29440;48.208;11.162;2023-08-06T02:59:12;2.53;;;1.70;;
43809;SDS011;29440;48.208;11.162;2023-08-06T03:01:38;3.63;;;2.40;;
43809;SDS011;29440;48.208;11.162;2023-08-06T03:04:04;4.32;;;2.00;;
43809;SDS011;29440;48.208;11.162;2023-08-06T03:06:30;2.85;;;2.10;;
43809;SDS011;29440;48.208;11.162;2023-08-06T03:08:55;4.10;;;2.17;;
43809;SDS011;29440;48.208;11.162;2023-08-06T03:11:21;4.20;;;1.95;;
43809;SDS011;29440;48.208;11.162;2023-08-06T03:13:47;2.35;;;1.73;;
43809;SDS011;29440;48.208;11.162;2023-08-06T03:16:13;3.80;;;1.90;;
43809;SDS011;29440;48.208;11.162;2023-08-06T03:18:38;3.42;;;1.83;;
43809;SDS011;29440;48.208;11.162;2023-08-06T03:21:04;3.17;;;1.70;;
43809;SDS011;29440;48.208;11.162;2023-08-06T03:23:30;3.03;;;1.98;;
43809;SDS011;29440;48.208;11.162;2023-08-06T03:25:56;3.65;;;1.90;;
43809;SDS011;29440;48.208;11.162;2023-08-06T03:28:25;3.72;;;1.80;;
43809;SDS011;29440;48.208;11.162;2023-08-06T03:30:58;3.28;;;1.77;;
43809;SDS011;29440;48.208;11.162;2023-08-06T03:33:28;2.08;;;1.40;;
43809;SDS011;29440;48.208;11.162;2023-08-06T03:35:53;4.32;;;1.63;;
43809;SDS011;29440;48.208;11.162;2023-08-06T03:38:19;4.43;;;1.70;;
43809;SDS011;29440;48.208;11.162;2023-08-06T03:40:48;3.72;;;1.83;;
43809;SDS011;29440;48.208;11.162;2023-08-06T03:43:14;2.03;;;1.45;;
43809;SDS011;29440;48.208;11.162;2023-08-06T03:45:40;2.72;;;1.85;;
43809;SDS011;29440;48.208;11.162;2023-08-06T03:48:07;2.55;;;1.70;;
43809;SDS011;29440;48.208;11.162;2023-08-06T03:50:33;2.38;;;1.48;;
43809;SDS011;29440;48.208;11.162;2023-08-06T03:52:59;4.88;;;1.75;;
43809;SDS011;29440;48.208;11.162;2023-08-06T03:55:24;2.67;;;1.80;;
43809;SDS011;29440;48.208;11.162;2023-08-06T03:57:50;2.05;;;1.55;;
43809;SDS011;29440;48.208;11.162;2023-08-06T04:00:16;4.38;;;1.90;;
43809;SDS011;29440;48.208;11.162;2023-08-06T04:02:41;2.75;;;1.73;;
43809;SDS011;29440;48.208;11.162;2023-08-06T04:05:07;2.25;;;1.83;;
43809;SDS011;29440;48.208;11.162;2023-08-06T04:07:33;2.25;;;1.70;;
43809;SDS011;29440;48.208;11.162;2023-08-06T04:09:59;4.22;;;1.67;;
43809;SDS011;29440;48.208;11.162;2023-08-06T04:12:28;2.58;;;1.60;;
43809;SDS011;29440;48.208;11.162;2023-08-06T04:14:56;2.85;;;1.80;;
43809;SDS011;29440;48.208;11.162;2023-08-06T04:17:22;4.18;;;1.83;;
43809;SDS011;29440;48.208;11.162;2023-08-06T04:19:52;3.13;;;1.50;;
43809;SDS011;29440;48.208;11.162;2023-08-06T04:22:18;3.88;;;1.40;;
43809;SDS011;29440;48.208;11.162;2023-08-06T04:24:45;3.40;;;1.70;;
43809;SDS011;29440;48.208;11.162;2023-08-06T04:27:11;2.15;;;1.58;;
43809;SDS011;29440;48.208;11.162;2023-08-06T04:29:37;2.38;;;1.67;;
43809;SDS011;29440;48.208;11.162;2023-08-06T04:32:03;2.30;;;1.75;;
43809;SDS011;29440;48.208;11.162;2023-08-06T04:34:33;3.45;;;1.40;;
43809;SDS011;29440;48.208;11.162;2023-08-06T04:37:00;2.72;;;1.60;;
43809;SDS011;29440;48.208;11.162;2023-08-06T04:39:26;4.72;;;1.60;;
43809;SDS011;29440;48.208;11.162;2023-08-06T04:41:52;4.90;;;1.60;;
43809;SDS011;29440;48.208;11.162;2023-08-06T04:44:17;3.58;;;1.50;;
43809;SDS011;29440;48.208;11.162;2023-08-06T04:46:43;2.38;;;1.58;;
43809;SDS011;29440;48.208;11.162;2023-08-06T04:49:09;1.85;;;1.48;;
43809;SDS011;29440;48.208;11.162;2023-08-06T04:51:35;2.95;;;1.77;;
43809;SDS011;29440;48.208;11.162;2023-08-06T04:54:01;3.53;;;1.52;;
43809;SDS011;29440;48.208;11.162;2023-08-06T04:56:26;4.38;;;1.50;;
43809;SDS011;29440;48.208;11.162;2023-08-06T04:58:52;5.88;;;1.90;;
43809;SDS011;29440;48.208;11.162;2023-08-06T05:01:18;3.72;;;1.45;;
43809;SDS011;29440;48.208;11.162;2023-08-06T05:03:43;2.58;;;1.60;;
43809;SDS011;29440;48.208;11.162;2023-08-06T05:06:09;2.40;;;1.65;;
43809;SDS011;29440;48.208;11.162;2023-08-06T05:08:35;2.58;;;1.40;;
43809;SDS011;29440;48.208;11.162;2023-08-06T05:11:01;3.15;;;1.58;;
43809;SDS011;29440;48.208;11.162;2023-08-06T05:13:26;2.53;;;1.55;;
43809;SDS011;29440;48.208;11.162;2023-08-06T05:15:55;5.03;;;1.33;;
43809;SDS011;29440;48.208;11.162;2023-08-06T05:18:21;2.90;;;1.45;;
43809;SDS011;29440;48.208;11.162;2023-08-06T05:20:46;2.38;;;1.30;;
43809;SDS011;29440;48.208;11.162;2023-08-06T05:23:12;5.03;;;1.63;;
43809;SDS011;29440;48.208;11.162;2023-08-06T05:25:38;2.33;;;1.10;;
43809;SDS011;29440;48.208;11.162;2023-08-06T05:28:04;3.08;;;1.40;;
43809;SDS011;29440;48.208;11.162;2023-08-06T05:30:30;3.40;;;1.33;;
43809;SDS011;29440;48.208;11.162;2023-08-06T05:32:56;2.80;;;1.20;;
43809;SDS011;29440;48.208;11.162;2023-08-06T05:35:22;2.10;;;1.23;;
43809;SDS011;29440;48.208;11.162;2023-08-06T05:37:49;2.33;;;1.40;;
43809;SDS011;29440;48.208;11.162;2023-08-06T05:40:15;3.20;;;1.23;;
43809;SDS011;29440;48.208;11.162;2023-08-06T05:42:41;2.92;;;1.30;;
43809;SDS011;29440;48.208;11.162;2023-08-06T05:45:07;4.60;;;1.20;;
43809;SDS011;29440;48.208;11.162;2023-08-06T05:47:33;2.28;;;1.10;;
43809;SDS011;29440;48.208;11.162;2023-08-06T05:49:58;1.70;;;1.13;;
43809;SDS011;29440;48.208;11.162;2023-08-06T05:52:24;2.15;;;1.38;;
43809;SDS011;29440;48.208;11.162;2023-08-06T05:54:50;2.30;;;1.10;;
43809;SDS011;29440;48.208;11.162;2023-08-06T05:57:16;2.80;;;1.30;;
43809;SDS011;29440;48.208;11.162;2023-08-06T05:59:42;1.70;;;1.20;;
43809;SDS011;29440;48.208;11.162;2023-08-06T06:02:08;3.30;;;1.00;;
43809;SDS011;29440;48.208;11.162;2023-08-06T06:04:33;2.92;;;0.95;;
43809;SDS011;29440;48.208;11.162;2023-08-06T06:06:59;3.47;;;0.80;;
43809;SDS011;29440;48.208;11.162;2023-08-06T06:09:26;1.50;;;0.88;;
43809;SDS011;29440;48.208;11.162;2023-08-06T06:11:52;1.27;;;0.80;;
43809;SDS011;29440;48.208;11.162;2023-08-06T06:14:18;1.90;;;0.77;;
43809;SDS011;29440;48.208;11.162;2023-08-06T06:16:44;1.45;;;0.63;;
43809;SDS011;29440;48.208;11.162;2023-08-06T06:19:10;1.88;;;0.93;;
43809;SDS011;29440;48.208;11.162;2023-08-06T06:21:36;4.40;;;0.85;;
43809;SDS011;29440;48.208;11.162;2023-08-06T06:24:05;2.33;;;0.70;;
43809;SDS011;29440;48.208;11.162;2023-08-06T06:26:31;2.78;;;0.80;;
43809;SDS011;29440;48.208;11.162;2023-08-06T06:28:57;2.15;;;0.82;;
43809;SDS011;29440;48.208;11.162;2023-08-06T06:31:25;1.83;;;0.82;;
43809;SDS011;29440;48.208;11.162;2023-08-06T06:33:51;1.52;;;0.60;;
43809;SDS011;29440;48.208;11.162;2023-08-06T06:36:19;4.25;;;0.40;;
43809;SDS011;29440;48.208;11.162;2023-08-06T06:38:45;1.00;;;0.40;;
43809;SDS011;29440;48.208;11.162;2023-08-06T06:41:10;1.70;;;0.43;;
43809;SDS011;29440;48.208;11.162;2023-08-06T06:43:36;1.05;;;0.40;;
43809;SDS011;29440;48.208;11.162;2023-08-06T06:46:03;2.22;;;0.40;;
43809;SDS011;29440;48.208;11.162;2023-08-06T06:48:29;1.77;;;0.50;;
43809;SDS011;29440;48.208;11.162;2023-08-06T06:50:56;2.60;;;0.47;;
43809;SDS011;29440;48.208;11.162;2023-08-06T06:53:22;2.45;;;0.50;;
43809;SDS011;29440;48.208;11.162;2023-08-06T06:55:54;1.25;;;0.50;;
43809;SDS011;29440;48.208;11.162;2023-08-06T06:58:26;2.90;;;0.77;;
43809;SDS011;29440;48.208;11.162;2023-08-06T07:00:52;1.00;;;0.40;;
43809;SDS011;29440;48.208;11.162;2023-08-06T07:03:19;1.92;;;0.50;;
43809;SDS011;29440;48.208;11.162;2023-08-06T07:05:45;2.97;;;0.47;;
43809;SDS011;29440;48.208;11.162;2023-08-06T07:08:10;1.45;;;0.50;;
43809;SDS011;29440;48.208;11.162;2023-08-06T07:10:36;2.05;;;0.60;;
43809;SDS011;29440;48.208;11.162;2023-08-06T07:13:02;1.88;;;0.60;;
43809;SDS011;29440;48.208;11.162;2023-08-06T07:15:28;1.67;;;0.50;;
43809;SDS011;29440;48.208;11.162;2023-08-06T07:17:54;4.18;;;1.60;;
43809;SDS011;29440;48.208;11.162;2023-08-06T07:20:20;1.00;;;0.50;;
43809;SDS011;29440;48.208;11.162;2023-08-06T07:22:48;2.03;;;0.70;;
43809;SDS011;29440;48.208;11.162;2023-08-06T07:25:15;1.75;;;0.80;;
43809;SDS011;29440;48.208;11.162;2023-08-06T07:27:48;3.05;;;0.70;;
43809;SDS011;29440;48.208;11.162;2023-08-06T07:30:14;1.50;;;0.60;;
43809;SDS011;29440;48.208;11.162;2023-08-06T07:32:43;1.00;;;0.52;;
43809;SDS011;29440;48.208;11.162;2023-08-06T07:35:08;1.40;;;0.43;;
43809;SDS011;29440;48.208;11.162;2023-08-06T07:37:37;1.02;;;0.50;;
43809;SDS011;29440;48.208;11.162;2023-08-06T07:40:04;0.70;;;0.40;;
43809;SDS011;29440;48.208;11.162;2023-08-06T07:42:30;1.33;;;0.52;;
43809;SDS011;29440;48.208;11.162;2023-08-06T07:44:56;1.25;;;0.40;;
43809;SDS011;29440;48.208;11.162;2023-08-06T07:47:23;1.42;;;0.40;;
43809;SDS011;29440;48.208;11.162;2023-08-06T07:49:49;3.05;;;0.50;;
43809;SDS011;29440;48.208;11.162;2023-08-06T07:52:15;0.50;;;0.40;;
43809;SDS011;29440;48.208;11.162;2023-08-06T07:54:41;0.75;;;0.40;;
43809;SDS011;29440;48.208;11.162;2023-08-06T07:57:07;0.82;;;0.40;;
43809;SDS011;29440;48.208;11.162;2023-08-06T07:59:32;5.97;;;0.40;;
43809;SDS011;29440;48.208;11.162;2023-08-06T08:01:58;1.40;;;0.45;;
43809;SDS011;29440;48.208;11.162;2023-08-06T08:04:24;2.35;;;0.50;;
43809;SDS011;29440;48.208;11.162;2023-08-06T08:06:50;0.70;;;0.30;;
43809;SDS011;29440;48.208;11.162;2023-08-06T08:09:15;1.25;;;0.30;;
43809;SDS011;29440;48.208;11.162;2023-08-06T08:11:41;2.45;;;0.30;;
43809;SDS011;29440;48.208;11.162;2023-08-06T08:14:07;2.28;;;0.65;;
43809;SDS011;29440;48.208;11.162;2023-08-06T08:16:33;0.82;;;0.20;;
43809;SDS011;29440;48.208;11.162;2023-08-06T08:18:58;0.93;;;0.30;;
43809;SDS011;29440;48.208;11.162;2023-08-06T08:21:24;1.13;;;0.30;;
43809;SDS011;29440;48.208;11.162;2023-08-06T08:23:51;0.40;;;0.25;;
43809;SDS011;29440;48.208;11.162;2023-08-06T08:26:17;0.82;;;0.30;;
43809;SDS011;29440;48.208;11.162;2023-08-06T08:28:42;1.80;;;0.30;;
43809;SDS011;29440;48.208;11.162;2023-08-06T08:31:08;1.60;;;0.30;;
43809;SDS011;29440;48.208;11.162;2023-08-06T08:33:34;0.55;;;0.30;;
43809;SDS011;29440;48.208;11.162;2023-08-06T08:36:05;0.20;;;0.20;;
43809;SDS011;29440;48.208;11.162;2023-08-06T08:38:30;1.00;;;0.30;;
43809;SDS011;29440;48.208;11.162;2023-08-06T08:40:56;1.85;;;0.38;;
43809;SDS011;29440;48.208;11.162;2023-08-06T08:43:22;0.60;;;0.20;;
43809;SDS011;29440;48.208;11.162;2023-08-06T08:45:52;0.95;;;0.20;;
43809;SDS011;29440;48.208;11.162;2023-08-06T08:48:23;0.57;;;0.20;;
43809;SDS011;29440;48.208;11.162;2023-08-06T08:50:50;0.47;;;0.20;;
43809;SDS011;29440;48.208;11.162;2023-08-06T08:53:16;1.63;;;0.30;;
43809;SDS011;29440;48.208;11.162;2023-08-06T08:55:42;0.73;;;0.20;;
43809;SDS011;29440;48.208;11.162;2023-08-06T08:58:09;0.73;;;0.20;;
43809;SDS011;29440;48.208;11.162;2023-08-06T09:00:35;0.20;;;0.20;;
43809;SDS011;29440;48.208;11.162;2023-08-06T09:03:01;1.00;;;0.20;;
43809;SDS011;29440;48.208;11.162;2023-08-06T09:05:29;0.50;;;0.20;;
43809;SDS011;29440;48.208;11.162;2023-08-06T09:07:56;0.40;;;0.20;;
43809;SDS011;29440;48.208;11.162;2023-08-06T09:10:28;0.77;;;0.20;;
43809;SDS011;29440;48.208;11.162;2023-08-06T09:12:55;2.17;;;0.20;;
43809;SDS011;29440;48.208;11.162;2023-08-06T09:15:25;0.20;;;0.10;;
43809;SDS011;29440;48.208;11.162;2023-08-06T09:17:55;0.20;;;0.20;;
43809;SDS011;29440;48.208;11.162;2023-08-06T09:20:20;0.95;;;0.20;;
43809;SDS011;29440;48.208;11.162;2023-08-06T09:22:46;1.33;;;0.20;;
43809;SDS011;29440;48.208;11.162;2023-08-06T09:25:21;0.80;;;0.20;;
43809;SDS011;29440;48.208;11.162;2023-08-06T09:27:50;0.63;;;0.17;;
43809;SDS011;29440;48.208;11.162;2023-08-06T09:30:29;1.40;;;0.10;;
43809;SDS011;29440;48.208;11.162;2023-08-06T09:32:59;2.63;;;0.20;;
43809;SDS011;29440;48.208;11.162;2023-08-06T09:35:25;0.30;;;0.20;;
43809;SDS011;29440;48.208;11.162;2023-08-06T09:37:54;0.68;;;0.10;;
43809;SDS011;29440;48.208;11.162;2023-08-06T09:42:55;0.50;;;0.10;;
43809;SDS011;29440;48.208;11.162;2023-08-06T09:45:21;1.75;;;0.20;;
43809;SDS011;29440;48.208;11.162;2023-08-06T09:47:48;1.30;;;0.82;;
43809;SDS011;29440;48.208;11.162;2023-08-06T09:50:16;0.47;;;0.10;;
43809;SDS011;29440;48.208;11.162;2023-08-06T09:52:43;0.30;;;0.15;;
43809;SDS011;29440;48.208;11.162;2023-08-06T09:55:13;0.20;;;0.20;;
43809;SDS011;29440;48.208;11.162;2023-08-06T09:57:39;0.85;;;0.20;;
43809;SDS011;29440;48.208;11.162;2023-08-06T10:00:06;1.95;;;0.20;;
43809;SDS011;29440;48.208;11.162;2023-08-06T10:02:34;1.00;;;0.20;;
43809;SDS011;29440;48.208;11.162;2023-08-06T10:05:03;0.43;;;0.22;;
43809;SDS011;29440;48.208;11.162;2023-08-06T10:07:30;1.17;;;0.30;;
43809;SDS011;29440;48.208;11.162;2023-08-06T10:09:56;0.50;;;0.20;;
43809;SDS011;29440;48.208;11.162;2023-08-06T10:12:22;0.17;;;0.17;;
43809;SDS011;29440;48.208;11.162;2023-08-06T10:14:50;0.80;;;0.10;;
43809;SDS011;29440;48.208;11.162;2023-08-06T10:17:18;0.40;;;0.10;;
43809;SDS011;29440;48.208;11.162;2023-08-06T10:19:44;0.60;;;0.10;;
43809;SDS011;29440;48.208;11.162;2023-08-06T10:22:12;0.20;;;0.10;;
43809;SDS011;29440;48.208;11.162;2023-08-06T10:24:46;0.95;;;0.10;;
43809;SDS011;29440;48.208;11.162;2023-08-06T10:27:34;0.17;;;0.10;;
43809;SDS011;29440;48.208;11.162;2023-08-06T10:32:56;1.88;;;0.20;;
43809;SDS011;29440;48.208;11.162;2023-08-06T10:35:29;3.40;;;0.13;;
43809;SDS011;29440;48.208;11.162;2023-08-06T10:38:00;0.15;;;0.10;;
43809;SDS011;29440;48.208;11.162;2023-08-06T10:40:39;0.80;;;0.15;;
43809;SDS011;29440;48.208;11.162;2023-08-06T10:43:06;0.22;;;0.10;;
43809;SDS011;29440;48.208;11.162;2023-08-06T10:45:34;0.43;;;0.10;;
43809;SDS011;29440;48.208;11.162;2023-08-06T10:48:01;1.98;;;0.10;;
43809;SDS011;29440;48.208;11.162;2023-08-06T10:50:27;0.88;;;0.10;;
43809;SDS011;29440;48.208;11.162;2023-08-06T10:52:53;1.77;;;0.05;;
43809;SDS011;29440;48.208;11.162;2023-08-06T10:55:37;0.05;;;0.05;;
43809;SDS011;29440;48.208;11.162;2023-08-06T10:58:03;0.20;;;0.10;;
43809;SDS011;29440;48.208;11.162;2023-08-06T11:00:29;0.10;;;0.10;;
43809;SDS011;29440;48.208;11.162;2023-08-06T11:02:54;0.40;;;0.10;;
43809;SDS011;29440;48.208;11.162;2023-08-06T11:05:20;1.08;;;0.10;;
43809;SDS011;29440;48.208;11.162;2023-08-06T11:07:46;1.45;;;0.10;;
43809;SDS011;29440;48.208;11.162;2023-08-06T11:10:13;0.63;;;0.10;;
43809;SDS011;29440;48.208;11.162;2023-08-06T11:12:39;0.15;;;0.10;;
43809;SDS011;29440;48.208;11.162;2023-08-06T11:15:05;0.20;;;0.10;;
43809;SDS011;29440;48.208;11.162;2023-08-06T11:17:32;0.20;;;0.10;;
43809;SDS011;29440;48.208;11.162;2023-08-06T11:19:59;0.43;;;0.10;;
43809;SDS011;29440;48.208;11.162;2023-08-06T11:22:26;0.10;;;0.10;;
43809;SDS011;29440;48.208;11.162;2023-08-06T11:24:52;0.20;;;0.10;;
43809;SDS011;29440;48.208;11.162;2023-08-06T11:27:18;0.10;;;0.10;;
43809;SDS011;29440;48.208;11.162;2023-08-06T11:29:44;0.32;;;0.10;;
43809;SDS011;29440;48.208;11.162;2023-08-06T11:32:10;0.32;;;0.10;;
43809;SDS011;29440;48.208;11.162;2023-08-06T11:34:36;0.10;;;0.10;;
43809;SDS011;29440;48.208;11.162;2023-08-06T11:37:05;0.10;;;0.10;;
43809;SDS011;29440;48.208;11.162;2023-08-06T11:39:32;1.08;;;0.10;;
43809;SDS011;29440;48.208;11.162;2023-08-06T11:41:58;0.10;;;0.10;;
43809;SDS011;29440;48.208;11.162;2023-08-06T11:44:25;0.50;;;0.10;;
43809;SDS011;29440;48.208;11.162;2023-08-06T11:46:55;0.40;;;0.10;;
43809;SDS011;29440;48.208;11.162;2023-08-06T11:49:36;0.60;;;0.30;;
43809;SDS011;29440;48.208;11.162;2023-08-06T11:52:18;2.45;;;0.17;;
43809;SDS011;29440;48.208;11.162;2023-08-06T11:54:59;0.88;;;0.20;;
43809;SDS011;29440;48.208;11.162;2023-08-06T11:57:35;0.32;;;0.20;;
43809;SDS011;29440;48.208;11.162;2023-08-06T12:00:06;0.10;;;0.10;;
43809;SDS011;29440;48.208;11.162;2023-08-06T12:02:34;0.17;;;0.10;;
43809;SDS011;29440;48.208;11.162;2023-08-06T12:05:09;0.77;;;0.35;;
43809;SDS011;29440;48.208;11.162;2023-08-06T12:07:49;0.10;;;0.10;;
43809;SDS011;29440;48.208;11.162;2023-08-06T12:10:19;0.70;;;0.20;;
43809;SDS011;29440;48.208;11.162;2023-08-06T12:12:45;0.10;;;0.10;;
43809;SDS011;29440;48.208;11.162;2023-08-06T12:15:11;0.52;;;0.10;;
43809;SDS011;29440;48.208;11.162;2023-08-06T12:17:37;0.10;;;0.10;;
43809;SDS011;29440;48.208;11.162;2023-08-06T12:20:04;0.10;;;0.10;;
43809;SDS011;29440;48.208;11.162;2023-08-06T12:22:31;0.00;;;0.00;;
43809;SDS011;29440;48.208;11.162;2023-08-06T12:25:04;0.20;;;0.10;;
43809;SDS011;29440;48.208;11.162;2023-08-06T12:27:35;0.17;;;0.17;;
43809;SDS011;29440;48.208;11.162;2023-08-06T12:30:02;1.08;;;0.10;;
43809;SDS011;29440;48.208;11.162;2023-08-06T12:32:28;0.65;;;0.20;;
43809;SDS011;29440;48.208;11.162;2023-08-06T12:34:54;0.10;;;0.10;;
43809;SDS011;29440;48.208;11.162;2023-08-06T12:37:20;0.10;;;0.10;;
43809;SDS011;29440;48.208;11.162;2023-08-06T12:39:46;0.93;;;0.10;;
43809;SDS011;29440;48.208;11.162;2023-08-06T12:42:11;0.10;;;0.10;;
43809;SDS011;29440;48.208;11.162;2023-08-06T12:44:37;0.10;;;0.10;;
43809;SDS011;29440;48.208;11.162;2023-08-06T12:47:03;0.73;;;0.10;;
43809;SDS011;29440;48.208;11.162;2023-08-06T12:49:28;0.10;;;0.10;;
43809;SDS011;29440;48.208;11.162;2023-08-06T12:51:55;1.25;;;0.10;;
43809;SDS011;29440;48.208;11.162;2023-08-06T12:54:21;0.20;;;0.10;;
43809;SDS011;29440;48.208;11.162;2023-08-06T12:56:47;0.93;;;0.10;;
43809;SDS011;29440;48.208;11.162;2023-08-06T12:59:14;0.50;;;0.10;;
43809;SDS011;29440;48.208;11.162;2023-08-06T13:01:40;0.10;;;0.00;;
43809;SDS011;29440;48.208;11.162;2023-08-06T13:04:06;0.20;;;0.20;;
43809;SDS011;29440;48.208;11.162;2023-08-06T13:06:32;0.55;;;0.10;;
43809;SDS011;29440;48.208;11.162;2023-08-06T13:09:08;0.20;;;0.10;;
43809;SDS011;29440;48.208;11.162;2023-08-06T13:11:35;0.00;;;0.00;;
43809;SDS011;29440;48.208;11.162;2023-08-06T13:14:12;0.60;;;0.10;;
43809;SDS011;29440;48.208;11.162;2023-08-06T13:16:40;0.10;;;0.10;;
43809;SDS011;29440;48.208;11.162;2023-08-06T13:19:07;0.10;;;0.10;;
43809;SDS011;29440;48.208;11.162;2023-08-06T13:21:34;2.42;;;0.10;;
43809;SDS011;29440;48.208;11.162;2023-08-06T13:24:16;0.98;;;0.28;;
43809;SDS011;29440;48.208;11.162;2023-08-06T13:26:42;0.22;;;0.20;;
43809;SDS011;29440;48.208;11.162;2023-08-06T13:29:07;0.10;;;0.10;;
43809;SDS011;29440;48.208;11.162;2023-08-06T13:31:33;0.28;;;0.10;;
43809;SDS011;29440;48.208;11.162;2023-08-06T13:33:58;0.10;;;0.10;;
43809;SDS011;29440;48.208;11.162;2023-08-06T13:36:27;0.32;;;0.10;;
43809;SDS011;29440;48.208;11.162;2023-08-06T13:38:53;0.20;;;0.20;;
43809;SDS011;29440;48.208;11.162;2023-08-06T13:41:19;0.22;;;0.20;;
43809;SDS011;29440;48.208;11.162;2023-08-06T13:43:44;0.80;;;0.10;;
43809;SDS011;29440;48.208;11.162;2023-08-06T13:46:10;0.60;;;0.10;;
43809;SDS011;29440;48.208;11.162;2023-08-06T13:48:43;0.22;;;0.10;;
43809;SDS011;29440;48.208;11.162;2023-08-06T13:51:10;0.25;;;0.10;;
43809;SDS011;29440;48.208;11.162;2023-08-06T13:53:36;0.10;;;0.10;;
43809;SDS011;29440;48.208;11.162;2023-08-06T13:56:03;0.10;;;0.10;;
43809;SDS011;29440;48.208;11.162;2023-08-06T13:58:34;0.10;;;0.10;;
43809;SDS011;29440;48.208;11.162;2023-08-06T14:01:00;0.05;;;0.03;;
43809;SDS011;29440;48.208;11.162;2023-08-06T14:03:25;0.35;;;0.20;;
43809;SDS011;29440;48.208;11.162;2023-08-06T14:05:51;0.32;;;0.10;;
43809;SDS011;29440;48.208;11.162;2023-08-06T14:08:18;0.10;;;0.10;;
43809;SDS011;29440;48.208;11.162;2023-08-06T14:10:44;1.65;;;0.15;;
43809;SDS011;29440;48.208;11.162;2023-08-06T14:13:09;0.10;;;0.10;;
43809;SDS011;29440;48.208;11.162;2023-08-06T14:15:36;0.40;;;0.10;;
43809;SDS011;29440;48.208;11.162;2023-08-06T14:18:05;0.40;;;0.10;;
43809;SDS011;29440;48.208;11.162;2023-08-06T14:20:31;0.20;;;0.17;;
43809;SDS011;29440;48.208;11.162;2023-08-06T14:22:57;0.20;;;0.13;;
43809;SDS011;29440;48.208;11.162;2023-08-06T14:25:22;0.10;;;0.10;;
43809;SDS011;29440;48.208;11.162;2023-08-06T14:27:48;0.50;;;0.20;;
43809;SDS011;29440;48.208;11.162;2023-08-06T14:30:13;0.40;;;0.20;;
43809;SDS011;29440;48.208;11.162;2023-08-06T14:32:39;2.00;;;0.70;;
43809;SDS011;29440;48.208;11.162;2023-08-06T14:35:04;0.13;;;0.13;;
43809;SDS011;29440;48.208;11.162;2023-08-06T14:37:30;0.32;;;0.20;;
43809;SDS011;29440;48.208;11.162;2023-08-06T14:39:56;0.28;;;0.20;;
43809;SDS011;29440;48.208;11.162;2023-08-06T14:42:21;0.30;;;0.20;;
43809;SDS011;29440;48.208;11.162;2023-08-06T14:44:47;0.25;;;0.10;;
43809;SDS011;29440;48.208;11.162;2023-08-06T14:47:12;0.20;;;0.10;;
43809;SDS011;29440;48.208;11.162;2023-08-06T14:49:38;0.10;;;0.10;;